Sugar Land Regional Airport
KSGR : rendu visible

Aérodrome :











RETROUVEZ-NOUS SUR...

 
LOGIN :

S'inscrire | Disclaimer

   EN    FR    IT 

 









Légende :    VFR   VFR Marginal   IFR   IFR Intensif   IFR Très Intensif
Visi : 
Plafond : 
>= 8 km
>= 3000ft
5 à 8 km
1000 à 3000 ft
1500m à 5 km
500 à 1000 ft
800 à 1500m
200 à 500 ft
< 800m
< 200 ft
Symboles :   Orages  Brouillard  Fortes neiges  Fortes précipitations  Vent > 20 kt






- Altitude de l'aérodrome : 82 ft


KSGR - Sugar Land Regional

DERNIER METAR :
  • 221215Z 00000KT 3SM BR FEW009 SCT014 BKN021 21/21 A2994 RMK AO2 T02110211

METARs EXPIRÉS :
  • 221203Z 00000KT 1 3/4SM BR BKN010 BKN015 OVC023 22/22 A2994 RMK AO2 T02170217
  • 221153Z 16003KT 4SM BR BKN014 OVC025 22/22 A2993 RMK AO2 RAE20 SLP137 P0006 60007 70007 T02170217 10233 20206 53002
  • 221114Z AUTO 00000KT 5SM -RA BR FEW012 BKN023 OVC033 22/22 A2993 RMK AO2 P0006 T02220222
  • 221106Z AUTO 00000KT 3SM -RA BR BKN012 BKN018 OVC024 22/22 A2993 RMK AO2 P0006 T02220222
  • 221053Z AUTO 03003KT 6SM -RA BR SCT010 BKN021 OVC028 22/22 A2992 RMK AO2 RAB06E13B46 SLP134 P0000 T02220222
  • 220953Z AUTO 00000KT 5SM BR SCT016 BKN022 OVC032 22/22 A2993 RMK AO2 SLP135 T02170217
  • 220937Z AUTO 00000KT 4SM BR SCT016 BKN026 OVC065 21/21 A2992 RMK AO2 T02110211
  • 220934Z AUTO 00000KT 2 1/2SM BR FEW016 BKN035 OVC065 21/21 A2992 RMK AO2 T02110211

TAF KSGR
Valide du 22 à 12h jusqu'au 23 à 12h UTC


221208Z 2212/2312 00000KT 1 1/2SM BR VCSH BKN010 BKN015 OVC023
FM221400 VRB04KT 2SM BR VCSH BKN010 BKN015
FM221800 24010KT P6SM VCTS BKN025CB
TEMPO 2220/2221 4SM -TSRA BKN018CB
FM222100 32010KT P6SM VCSH SCT021 BKN045
FM230000 34010KT P6SM SCT035 OVC090



MET'MAP, la Météo Aéronautique d'un coup d'oeil ! - Copyright ORBIFLY Décembre 2007 - Disclaimer

ORBIFLY MET'MAP TEAM :

Programmation & Développement : Alexandra Zaïnal
Conception & Développement : Baudouin d'Aumeries
Co-Programmation & Développement : Marc-Olivier Méhu
Soutien technique & logistique : Manuel Goepfert

Contact : metmap@orbifly.com




SOURCES & CREDITS :

   NOAA       Earth
Advisory